Time;durP1;ratioP1;P1;durP2;ratioP2;P2;SDS_P1;SDS_P2;PMS_P1;PMS_P2;Temp;Humidity;BMP_temperature;BMP_pressure;BME280_temperature;BME280_humidity;BME280_pressure;Samples;Min_cycle;Max_cycle;Signal;HPM_P1;HPM_P2
2021/07/26 00:01:03;;;;;;;6.25;1.90;;;;;;;;;;5069583;28;20105;-85
2021/07/26 00:03:29;;;;;;;4.70;1.67;;;;;;;;;;5067355;28;20033;-85
2021/07/26 00:05:59;;;;;;;3.17;1.35;;;20.80;60.50;;;;;;5068007;28;20036;-85
2021/07/26 00:08:25;;;;;;;1.75;1.00;;;;;;;;;;5065981;28;20025;-86
2021/07/26 00:11:05;;;;;;;2.15;1.15;;;20.60;61.10;;;;;;5065588;28;20493;-85
2021/07/26 00:13:31;;;;;;;4.78;1.75;;;;;;;;;;5067337;28;20525;-84
2021/07/26 00:15:57;;;;;;;2.72;1.80;;;;;;;;;;5069459;28;20563;-85
2021/07/26 00:18:23;;;;;;;3.17;1.40;;;20.50;68.50;;;;;;5066244;28;20032;-85
2021/07/26 00:20:49;;;;;;;6.05;1.55;;;;;;;;;;5065229;28;20089;-86
2021/07/26 00:23:15;;;;;;;5.85;1.50;;;;;;;;;;5065680;28;20111;-85
2021/07/26 00:25:41;;;;;;;7.97;2.25;;;;;;;;;;5067405;28;20100;-84
2021/07/26 00:28:08;;;;;;;3.95;1.60;;;;;;;;;;5069589;28;20044;-85
2021/07/26 00:30:35;;;;;;;5.93;1.60;;;;;;;;;;5067681;28;20086;-85
2021/07/26 00:33:01;;;;;;;4.47;1.80;;;;;;;;;;5066684;28;20559;-85
2021/07/26 00:35:27;;;;;;;4.22;1.52;;;;;;;;;;5062633;28;20025;-85
2021/07/26 00:37:53;;;;;;;2.30;1.42;;;;;;;;;;5060489;28;20056;-85
2021/07/26 00:40:19;;;;;;;3.70;1.23;;;;;;;;;;5068038;28;20024;-85
2021/07/26 00:42:45;;;;;;;2.25;1.63;;;;;;;;;;5066849;28;20044;-86
2021/07/26 00:45:11;;;;;;;3.10;1.52;;;;;;;;;;5065433;28;20020;-85
2021/07/26 00:47:37;;;;;;;4.35;1.35;;;;;;;;;;5066115;28;20576;-85
2021/07/26 00:50:03;;;;;;;4.05;1.10;;;21.40;80.20;;;;;;5065657;28;20100;-85
2021/07/26 00:52:29;;;;;;;3.40;1.58;;;;;;;;;;5066688;28;20074;-85
2021/07/26 00:54:55;;;;;;;2.50;1.40;;;;;;;;;;5068664;28;20271;-85
2021/07/26 00:57:22;;;;;;;2.92;1.58;;;;;;;;;;5064955;28;20048;-85
2021/07/26 00:59:50;;;;;;;2.47;1.20;;;20.80;61.40;;;;;;5064974;28;20029;-85
2021/07/26 01:02:16;;;;;;;3.67;1.50;;;;;;;;;;5056813;28;20378;-85
2021/07/26 01:04:42;;;;;;;2.22;1.67;;;;;;;;;;5064909;28;20043;-84
2021/07/26 01:07:08;;;;;;;3.17;2.13;;;;;;;;;;5069327;28;20017;-84
2021/07/26 01:09:34;;;;;;;3.90;1.73;;;20.50;62.30;;;;;;5065951;28;20033;-85
2021/07/26 01:12:00;;;;;;;22.60;3.50;;;;;;;;;;5066483;28;20028;-85
2021/07/26 01:14:26;;;;;;;2.85;1.75;;;20.50;62.20;;;;;;5065412;28;20393;-86
2021/07/26 01:16:52;;;;;;;2.72;1.35;;;;;;;;;;5065180;28;20021;-85
2021/07/26 01:19:18;;;;;;;2.42;1.83;;;;;;;;;;5067320;28;20017;-85
2021/07/26 01:21:44;;;;;;;4.60;1.63;;;;;;;;;;5067491;28;20035;-85
2021/07/26 01:24:10;;;;;;;3.75;2.08;;;20.60;62.10;;;;;;5066670;28;20437;-85
2021/07/26 01:26:36;;;;;;;3.65;1.58;;;;;;;;;;5063522;28;20560;-85
2021/07/26 01:29:07;;;;;;;3.22;2.20;;;;;;;;;;5067880;28;20111;-86
2021/07/26 01:31:33;;;;;;;9.63;2.10;;;20.50;61.60;;;;;;5070111;28;20029;-85
2021/07/26 01:33:59;;;;;;;2.85;1.48;;;;;;;;;;5071692;28;20032;-85
2021/07/26 01:36:25;;;;;;;3.88;2.08;;;;;;;;;;5068859;28;20024;-85
2021/07/26 01:38:52;;;;;;;5.18;2.53;;;;;;;;;;5068641;28;20036;-85
2021/07/26 01:41:22;;;;;;;2.15;1.42;;;20.50;62.10;;;;;;5069823;28;20125;-84
2021/07/26 01:44:06;;;;;;;5.00;2.67;;;20.50;61.70;;;;;;5070206;28;20056;-86
2021/07/26 01:46:54;;;;;;;6.03;1.52;;;20.50;62.00;;;;;;5069904;28;20064;-85
2021/07/26 01:49:59;;;;;;;2.10;1.70;;;20.40;61.90;;;;;;5067253;28;20126;-86
2021/07/26 01:52:25;;;;;;;4.60;1.90;;;;;;;;;;5048182;28;20457;-85
2021/07/26 01:54:51;;;;;;;6.50;2.30;;;;;;;;;;5047842;28;20454;-85
2021/07/26 01:57:18;;;;;;;3.47;1.33;;;;;;;;;;5041621;28;20139;-85
2021/07/26 01:59:44;;;;;;;2.95;1.63;;;;;;;;;;5046245;28;20056;-84
2021/07/26 02:02:10;;;;;;;3.17;2.20;;;;;;;;;;5046109;28;20060;-85
2021/07/26 02:04:36;;;;;;;3.55;2.20;;;;;;;;;;5032098;28;20521;-86
2021/07/26 02:07:02;;;;;;;5.25;2.05;;;;;;;;;;5049212;28;20399;-85
2021/07/26 02:09:28;;;;;;;2.65;2.05;;;;;;;;;;5046515;28;20037;-85
2021/07/26 02:11:54;;;;;;;5.70;2.30;;;;;;;;;;5045140;28;20128;-86
2021/07/26 02:14:20;;;;;;;2.83;1.65;;;;;;;;;;5045779;28;20592;-85
2021/07/26 02:16:50;;;;;;;6.38;3.28;;;;;;;;;;5045605;28;20030;-85
2021/07/26 02:19:16;;;;;;;2.63;1.42;;;;;;;;;;5048042;28;20029;-85
2021/07/26 02:21:42;;;;;;;4.00;1.50;;;;;;;;;;5032247;28;20033;-85
2021/07/26 02:24:08;;;;;;;1.90;1.42;;;;;;;;;;5045491;28;20502;-85
2021/07/26 02:26:34;;;;;;;4.53;1.33;;;;;;;;;;5045490;28;20029;-86
2021/07/26 02:29:00;;;;;;;5.70;2.22;;;;;;;;;;5065421;28;20512;-84
2021/07/26 02:31:26;;;;;;;9.60;2.33;;;;;;;;;;5069074;28;20065;-86
2021/07/26 02:33:52;;;;;;;5.88;1.70;;;;;;;;;;5071516;28;20024;-85
2021/07/26 02:36:18;;;;;;;3.20;1.60;;;;;;;;;;5067439;28;20036;-87
2021/07/26 02:38:44;;;;;;;3.20;1.70;;;;;;;;;;5067495;28;20033;-85
2021/07/26 02:41:14;;;;;;;2.97;1.52;;;20.00;63.40;;;;;;5069253;28;20025;-85
2021/07/26 02:43:40;;;;;;;3.10;1.73;;;;;;;;;;5067548;28;20048;-85
2021/07/26 02:46:08;;;;;;;1.85;1.38;;;;;;;;;;5071299;28;20074;-85
2021/07/26 02:48:35;;;;;;;4.90;1.63;;;19.70;64.30;;;;;;5069829;28;20040;-85
2021/07/26 02:51:01;;;;;;;5.30;2.00;;;;;;;;;;5067714;28;20047;-85
2021/07/26 02:53:27;;;;;;;3.60;1.95;;;;;;;;;;5068944;28;20024;-85
2021/07/26 02:55:53;;;;;;;4.43;1.77;;;;;;;;;;5067158;28;20052;-86
2021/07/26 02:58:20;;;;;;;4.05;1.90;;;;;;;;;;5065347;28;20515;-86
2021/07/26 03:00:46;;;;;;;3.78;2.15;;;;;;;;;;5070742;28;20078;-85
2021/07/26 03:03:12;;;;;;;5.30;1.85;;;;;;;;;;5064989;28;20095;-85
2021/07/26 03:05:38;;;;;;;3.70;1.85;;;;;;;;;;5059074;28;20024;-85
2021/07/26 03:08:04;;;;;;;3.63;1.60;;;;;;;;;;5068654;28;20024;-84
2021/07/26 03:10:30;;;;;;;2.90;1.42;;;;;;;;;;5067707;28;20801;-84
2021/07/26 03:12:56;;;;;;;3.35;1.65;;;;;;;;;;5069649;28;20029;-85
2021/07/26 03:15:23;;;;;;;9.45;1.73;;;;;;;;;;5066271;28;20029;-86
2021/07/26 03:17:49;;;;;;;3.85;2.08;;;;;;;;;;5064729;28;20559;-86
2021/07/26 03:20:15;;;;;;;4.82;2.35;;;;;;;;;;5056044;28;20100;-84
2021/07/26 03:23:03;;;;;;;3.80;1.23;;;19.50;66.40;;;;;;5068103;28;20104;-85
2021/07/26 03:25:32;;;;;;;5.13;1.88;;;19.60;65.90;;;;;;5067722;28;20036;-85
2021/07/26 03:27:59;;;;;;;4.50;1.75;;;;;;;;;;5069626;28;20033;-85
2021/07/26 03:30:25;;;;;;;4.70;2.08;;;;;;;;;;5067727;28;20032;-85
2021/07/26 03:32:51;;;;;;;4.40;2.20;;;;;;;;;;5064780;28;20456;-85
2021/07/26 03:35:18;;;;;;;2.50;1.75;;;;;;;;;;5056243;28;20497;-85
2021/07/26 03:37:44;;;;;;;4.35;2.05;;;;;;;;;;5066519;28;20116;-85
2021/07/26 03:40:10;;;;;;;7.55;2.03;;;;;;;;;;5069925;28;20033;-85
2021/07/26 03:42:37;;;;;;;4.20;1.67;;;20.10;63.70;;;;;;5067611;28;20051;-85
2021/07/26 03:45:04;;;;;;;5.95;2.47;;;;;;;;;;5065169;28;20492;-85
2021/07/26 03:47:30;;;;;;;3.17;1.92;;;;;;;;;;5067597;28;22310;-86
2021/07/26 03:49:57;;;;;;;8.30;2.17;;;;;;;;;;5066302;28;20025;-85
2021/07/26 03:52:22;;;;;;;5.78;2.60;;;;;;;;;;5068522;28;20029;-85
2021/07/26 03:54:49;;;;;;;7.30;2.20;;;;;;;;;;5068034;28;20043;-85
2021/07/26 03:57:15;;;;;;;2.55;1.75;;;;;;;;;;5067958;28;20055;-85
2021/07/26 03:59:40;;;;;;;3.83;1.88;;;;;;;;;;5065641;28;20763;-86
2021/07/26 04:02:07;;;;;;;4.45;2.22;;;;;;;;;;5067775;28;20047;-85
2021/07/26 04:04:33;;;;;;;4.15;2.17;;;;;;;;;;5066942;28;20044;-84
2021/07/26 04:07:05;;;;;;;8.02;2.28;;;;;;;;;;5068438;28;20077;-85
2021/07/26 04:09:37;;;;;;;5.20;1.98;;;;;;;;;;5066408;28;20549;-85
2021/07/26 04:12:06;;;;;;;2.38;1.25;;;;;;;;;;5065507;28;20028;-84
2021/07/26 04:14:36;;;;;;;4.47;2.30;;;;;;;;;;5065851;28;20028;-85
2021/07/26 04:17:03;;;;;;;2.45;1.33;;;;;;;;;;5067526;28;20027;-85
2021/07/26 04:19:30;;;;;;;4.50;1.77;;;;;;;;;;5067332;28;20043;-84
2021/07/26 04:21:56;;;;;;;5.45;1.90;;;19.90;64.90;;;;;;5068581;28;20039;-84
2021/07/26 04:24:23;;;;;;;4.03;1.67;;;;;;;;;;5065295;28;20044;-85
2021/07/26 04:26:48;;;;;;;3.50;1.45;;;;;;;;;;5065549;28;20033;-84
2021/07/26 04:29:15;;;;;;;3.53;2.30;;;;;;;;;;5067067;28;20107;-85
2021/07/26 04:31:42;;;;;;;4.10;1.98;;;;;;;;;;5066887;28;20035;-85
2021/07/26 04:34:08;;;;;;;4.80;2.33;;;;;;;;;;5069226;28;20037;-84
2021/07/26 04:36:34;;;;;;;2.33;1.50;;;;;;;;;;5067785;28;20031;-85
2021/07/26 04:39:00;;;;;;;5.72;1.58;;;;;;;;;;5066202;28;20588;-85
2021/07/26 04:41:26;;;;;;;2.47;1.80;;;;;;;;;;5067036;28;20112;-85
2021/07/26 04:43:52;;;;;;;6.70;2.00;;;;;;;;;;5066725;28;20059;-84
2021/07/26 04:46:18;;;;;;;4.13;1.50;;;;;;;;;;5067860;28;20556;-85
2021/07/26 04:48:44;;;;;;;4.28;1.95;;;;;;;;;;5067151;28;20031;-84
2021/07/26 04:51:10;;;;;;;4.55;1.83;;;;;;;;;;5067306;28;20032;-84
2021/07/26 04:53:36;;;;;;;3.92;1.95;;;;;;;;;;5065494;28;20668;-85
2021/07/26 04:56:02;;;;;;;4.05;2.45;;;;;;;;;;5064911;28;20102;-85
2021/07/26 04:58:28;;;;;;;3.20;2.08;;;;;;;;;;5070602;28;20115;-85
2021/07/26 05:00:54;;;;;;;4.85;1.90;;;;;;;;;;5070195;28;20116;-85
2021/07/26 05:03:20;;;;;;;3.63;2.00;;;;;;;;;;5067650;28;20036;-85
2021/07/26 05:05:46;;;;;;;4.10;2.35;;;;;;;;;;5062866;28;20036;-85
2021/07/26 05:08:12;;;;;;;4.85;2.40;;;;;;;;;;5069496;28;20447;-85
2021/07/26 05:10:39;;;;;;;7.40;2.00;;;;;;;;;;5069401;28;20048;-85
2021/07/26 05:13:05;;;;;;;4.97;2.10;;;;;;;;;;5073170;28;20057;-86
2021/07/26 05:15:31;;;;;;;4.25;1.90;;;;;;;;;;5070652;28;20040;-85
2021/07/26 05:17:57;;;;;;;5.18;2.38;;;;;;;;;;5069694;28;20058;-85
2021/07/26 05:20:23;;;;;;;14.85;2.83;;;20.80;83.10;;;;;;5070540;28;20021;-85
2021/07/26 05:22:49;;;;;;;7.97;2.65;;;;;;;;;;5069290;28;20493;-86
2021/07/26 05:25:15;;;;;;;7.82;2.53;;;;;;;;;;5071665;28;20028;-86
2021/07/26 05:27:41;;;;;;;3.83;2.15;;;;;;;;;;5071488;28;20033;-86
2021/07/26 05:30:08;;;;;;;9.85;2.45;;;;;;;;;;5070923;28;20025;-85
2021/07/26 05:32:34;;;;;;;3.28;1.63;;;;;;;;;;5069894;28;20485;-86
2021/07/26 05:35:00;;;;;;;8.73;2.17;;;;;;;;;;5068916;28;20039;-87
2021/07/26 05:37:26;;;;;;;3.97;1.98;;;;;;;;;;5070730;28;20025;-85
2021/07/26 05:39:52;;;;;;;3.03;1.50;;;;;;;;;;5070829;28;20039;-86
2021/07/26 05:42:19;;;;;;;6.63;1.92;;;;;;;;;;5068327;28;20031;-87
2021/07/26 05:44:45;;;;;;;3.58;1.73;;;;;;;;;;5070062;28;20386;-86
2021/07/26 05:47:11;;;;;;;3.92;2.28;;;;;;;;;;5064696;28;20074;-85
2021/07/26 05:49:37;;;;;;;6.05;2.45;;;;;;;;;;5070452;28;20037;-86
2021/07/26 05:52:03;;;;;;;5.00;2.90;;;;;;;;;;5072504;28;20068;-75
2021/07/26 05:54:29;;;;;;;6.35;2.45;;;;;;;;;;5067332;28;20036;-75
2021/07/26 05:56:56;;;;;;;3.88;1.60;;;;;;;;;;5063568;28;20873;-75
2021/07/26 05:59:22;;;;;;;9.27;2.42;;;;;;;;;;5068377;28;20070;-75
2021/07/26 06:01:48;;;;;;;7.28;2.10;;;;;;;;;;5068362;28;20033;-74
2021/07/26 06:04:17;;;;;;;4.47;2.13;;;22.40;59.20;;;;;;5070908;28;20044;-75
2021/07/26 06:06:43;;;;;;;2.75;1.55;;;;;;;;;;5066754;28;20031;-75
2021/07/26 06:09:10;;;;;;;3.50;1.60;;;;;;;;;;5066216;28;20032;-75
2021/07/26 06:11:37;;;;;;;8.03;2.70;;;;;;;;;;5066852;28;20024;-76
2021/07/26 06:14:03;;;;;;;3.13;1.75;;;;;;;;;;5066557;28;20443;-76
2021/07/26 06:16:29;;;;;;;6.68;2.10;;;22.70;76.10;;;;;;5068168;28;20032;-83
2021/07/26 06:18:55;;;;;;;3.05;2.17;;;;;;;;;;5070841;28;20029;-83
2021/07/26 06:21:21;;;;;;;3.13;1.40;;;;;;;;;;5066186;28;20032;-83
2021/07/26 06:23:47;;;;;;;4.43;1.80;;;;;;;;;;5059806;28;20044;-82
2021/07/26 06:26:13;;;;;;;5.68;2.90;;;;;;;;;;5056663;28;20022;-81
2021/07/26 06:28:39;;;;;;;4.63;2.03;;;;;;;;;;5042764;28;20032;-81
2021/07/26 06:31:06;;;;;;;4.65;2.22;;;;;;;;;;5060322;28;20109;-81
2021/07/26 06:33:32;;;;;;;;;;;22.20;59.50;;;;;;5060377;28;20117;-82
2021/07/26 06:35:58;;;;;;;3.70;1.65;;;;;;;;;;5054454;28;20437;-80
2021/07/26 06:38:24;;;;;;;5.63;2.17;;;;;;;;;;5060221;28;20619;-83
2021/07/26 06:40:50;;;;;;;5.93;1.92;;;;;;;;;;5059758;28;20451;-81
2021/07/26 06:43:16;;;;;;;4.35;1.77;;;;;;;;;;5059735;28;20128;-81
2021/07/26 06:45:42;;;;;;;5.10;1.77;;;;;;;;;;5056951;28;20029;-81
2021/07/26 06:48:08;;;;;;;9.05;2.33;;;;;;;;;;5052994;28;20028;-82
2021/07/26 06:50:34;;;;;;;3.45;1.60;;;;;;;;;;5052756;28;20033;-82
2021/07/26 06:53:00;;;;;;;5.35;2.33;;;;;;;;;;5062073;28;20452;-83
2021/07/26 06:55:26;;;;;;;5.03;1.92;;;;;;;;;;5058127;28;20036;-82
2021/07/26 06:57:52;;;;;;;2.88;1.52;;;;;;;;;;5052875;28;20536;-81
2021/07/26 07:00:18;;;;;;;3.28;1.42;;;;;;;;;;5057601;28;20029;-81
2021/07/26 07:02:46;;;;;;;6.38;2.42;;;;;;;;;;5063217;28;20054;-80
2021/07/26 07:05:12;;;;;;;2.95;2.00;;;;;;;;;;5055212;28;20110;-81
2021/07/26 07:07:38;;;;;;;6.82;1.75;;;;;;;;;;5060596;28;20497;-82
2021/07/26 07:10:05;;;;;;;4.60;2.63;;;;;;;;;;5054174;28;20033;-82
2021/07/26 07:12:30;;;;;;;5.15;2.55;;;;;;;;;;5055938;28;20070;-82
2021/07/26 07:14:56;;;;;;;4.18;1.55;;;;;;;;;;5060079;28;20056;-81
2021/07/26 07:17:22;;;;;;;3.65;1.40;;;;;;;;;;5061050;28;20692;-82
2021/07/26 07:19:49;;;;;;;5.40;2.35;;;;;;;;;;5052735;28;20021;-82
2021/07/26 07:22:20;;;;;;;5.03;2.15;;;30.60;39.00;;;;;;5056413;28;20016;-81
2021/07/26 07:24:46;;;;;;;7.30;1.83;;;;;;;;;;5049978;28;20155;-82
2021/07/26 07:27:12;;;;;;;6.50;1.77;;;;;;;;;;5053515;28;20035;-82
2021/07/26 07:29:38;;;;;;;4.82;2.50;;;;;;;;;;5055604;28;20041;-82
2021/07/26 07:32:04;;;;;;;8.38;1.50;;;;;;;;;;5055828;28;20507;-82
2021/07/26 07:34:30;;;;;;;4.38;1.88;;;;;;;;;;5050474;28;20036;-83
2021/07/26 07:36:58;;;;;;;5.37;2.10;;;;;;;;;;5053032;28;20111;-82
2021/07/26 07:39:25;;;;;;;4.47;1.40;;;;;;;;;;5050770;28;20104;-83
2021/07/26 07:41:51;;;;;;;3.97;1.77;;;;;;;;;;5056904;28;20041;-83
2021/07/26 07:44:17;;;;;;;7.05;1.80;;;;;;;;;;5054098;28;20036;-82
2021/07/26 07:46:43;;;;;;;2.60;1.30;;;;;;;;;;5058554;28;20028;-84
2021/07/26 07:49:11;;;;;;;7.20;2.53;;;;;;;;;;5072178;28;20029;-83
2021/07/26 07:51:36;;;;;;;3.03;1.60;;;;;;;;;;5055980;28;20751;-83
2021/07/26 07:54:03;;;;;;;6.57;2.22;;;;;;;;;;5059583;28;20049;-82
2021/07/26 07:56:29;;;;;;;4.83;1.77;;;;;;;;;;5054367;28;20102;-81
2021/07/26 07:58:59;;;;;;;3.92;1.83;;;;;;;;;;5054763;28;20644;-80
2021/07/26 08:01:32;;;;;;;4.57;1.92;;;;;;;;;;5053894;28;20070;-81
2021/07/26 08:03:58;;;;;;;7.85;2.15;;;;;;;;;;5057068;28;20040;-81
2021/07/26 08:06:24;;;;;;;6.50;2.78;;;;;;;;;;5051130;28;20020;-81
2021/07/26 08:08:50;;;;;;;4.32;1.27;;;;;;;;;;5054260;28;20033;-80
2021/07/26 08:11:16;;;;;;;2.83;1.52;;;;;;;;;;5054094;28;21134;-81
2021/07/26 08:13:42;;;;;;;5.72;2.05;;;;;;;;;;5049615;28;20085;-82
2021/07/26 08:16:08;;;;;;;7.40;2.05;;;;;;;;;;5053935;28;20018;-80
2021/07/26 08:18:34;;;;;;;10.60;2.27;;;;;;;;;;5058558;28;20063;-82
2021/07/26 08:21:00;;;;;;;10.45;1.67;;;;;;;;;;5054762;28;20491;-82
2021/07/26 08:23:26;;;;;;;2.70;1.63;;;;;;;;;;5051914;28;20041;-82
2021/07/26 08:25:52;;;;;;;5.13;1.67;;;;;;;;;;5054781;28;20033;-82
2021/07/26 08:28:18;;;;;;;4.60;2.07;;;;;;;;;;5053844;28;20051;-80
2021/07/26 08:30:45;;;;;;;11.70;3.33;;;;;;;;;;5050838;28;20108;-82
2021/07/26 08:33:11;;;;;;;6.43;1.55;;;;;;;;;;5051757;28;20029;-82
2021/07/26 08:35:37;;;;;;;3.67;1.25;;;;;;;;;;5052476;28;20302;-81
2021/07/26 08:38:04;;;;;;;3.53;1.45;;;32.30;33.00;;;;;;5058753;28;20066;-82
2021/07/26 08:40:31;;;;;;;4.28;1.30;;;;;;;;;;5048139;28;20040;-81
2021/07/26 08:43:02;;;;;;;;;;;30.80;34.50;;;;;;5053490;28;20033;-81
2021/07/26 08:45:28;;;;;;;4.70;1.30;;;;;;;;;;5060056;28;19919;-80
2021/07/26 08:47:59;;;;;;;5.30;1.88;;;31.40;36.30;;;;;;5054063;28;20028;-82
2021/07/26 08:50:26;;;;;;;3.17;2.15;;;;;;;;;;5048157;28;20163;-83
2021/07/26 08:52:52;;;;;;;6.13;2.10;;;31.60;33.10;;;;;;5051736;28;20028;-83
2021/07/26 08:55:23;;;;;;;7.32;2.08;;;30.70;34.10;;;;;;5052528;28;20024;-82
2021/07/26 08:57:50;;;;;;;3.58;1.92;;;29.80;35.10;;;;;;5056716;28;20036;-80
2021/07/26 09:00:17;;;;;;;4.57;1.60;;;;;;;;;;5048030;28;20056;-81
2021/07/26 09:02:43;;;;;;;;;;;;;;;;;;5058253;28;20025;-82
2021/07/26 09:05:10;;;;;;;3.30;1.40;;;34.20;33.20;;;;;;5054101;28;20374;-80
2021/07/26 09:07:39;;;;;;;5.07;1.42;;;35.90;30.00;;;;;;5054079;28;20083;-82
2021/07/26 09:10:11;;;;;;;5.85;1.95;;;;;;;;;;5047570;28;20569;-82
2021/07/26 09:12:40;;;;;;;3.20;2.22;;;38.70;27.10;;;;;;5050894;28;20036;-81
2021/07/26 09:15:27;;;;;;;2.72;1.40;;;38.60;26.10;;;;;;5056779;28;20025;-81
2021/07/26 09:17:53;;;;;;;3.45;1.70;;;39.40;39.40;;;;;;5055662;28;20033;-82
2021/07/26 09:20:28;;;;;;;5.95;1.23;;;;;;;;;;5057266;28;20552;-82
2021/07/26 09:22:57;;;;;;;3.38;1.95;;;41.20;25.40;;;;;;5048162;28;20044;-81
2021/07/26 09:25:30;;;;;;;4.43;1.55;;;42.00;25.00;;;;;;5046674;28;20599;-81
2021/07/26 09:28:14;;;;;;;2.92;1.25;;;43.20;25.30;;;;;;5054836;28;20036;-81
2021/07/26 09:30:44;;;;;;;3.63;1.50;;;43.30;24.40;;;;;;5048322;28;20592;-81
2021/07/26 09:33:29;;;;;;;3.63;1.67;;;;;;;;;;5056891;28;20028;-81
2021/07/26 09:36:09;;;;;;;2.80;0.93;;;;;;;;;;5055575;28;20035;-82
2021/07/26 09:38:35;;;;;;;4.03;1.45;;;41.70;30.00;;;;;;5054708;28;20025;-81
2021/07/26 09:41:02;;;;;;;5.82;1.88;;;;;;;;;;5058887;28;20051;-82
2021/07/26 09:43:28;;;;;;;8.30;1.95;;;;;;;;;;5056958;28;20441;-82
2021/07/26 09:45:56;;;;;;;1.45;0.80;;;;;;;;;;5058142;28;20398;-81
2021/07/26 09:48:26;;;;;;;3.50;1.65;;;41.10;23.80;;;;;;5053014;28;20055;-81
2021/07/26 09:50:53;;;;;;;13.75;1.58;;;;;;;;;;5062079;28;20024;-81
2021/07/26 09:53:23;;;;;;;5.05;1.33;;;37.30;24.90;;;;;;5058034;28;20493;-82
2021/07/26 09:55:55;;;;;;;5.90;1.63;;;;;;;;;;5051864;28;20033;-82
2021/07/26 09:58:35;;;;;;;3.17;1.40;;;;;;;;;;5058916;28;20036;-80
2021/07/26 10:01:01;;;;;;;3.13;1.35;;;;;;;;;;5064039;28;20117;-83
2021/07/26 10:03:28;;;;;;;4.32;1.33;;;;;;;;;;5061108;28;20039;-84
2021/07/26 10:05:54;;;;;;;3.67;1.80;;;34.40;29.40;;;;;;5054906;28;20555;-84
2021/07/26 10:08:21;;;;;;;7.30;1.40;;;36.00;28.20;;;;;;5063622;28;20031;-84
2021/07/26 10:10:48;;;;;;;9.25;1.65;;;;;;;;;;5050403;28;20029;-84
2021/07/26 10:13:14;;;;;;;4.82;1.55;;;37.80;25.70;;;;;;5049935;28;20029;-84
2021/07/26 10:15:40;;;;;;;3.88;2.15;;;;;;;;;;5054707;28;20069;-83
2021/07/26 10:18:06;;;;;;;2.25;0.95;;;;;;;;;;5057973;28;20032;-83
2021/07/26 10:20:40;;;;;;;4.55;2.03;;;;;;;;;;5056265;28;20036;-84
2021/07/26 10:23:16;;;;;;;1.77;1.13;;;39.60;26.60;;;;;;5055393;28;20037;-83
2021/07/26 10:25:48;;;;;;;5.15;1.70;;;;;;;;;;5057085;28;20032;-82
2021/07/26 10:28:21;;;;;;;8.00;1.60;;;42.20;24.30;;;;;;5063248;28;20017;-83
2021/07/26 10:30:47;;;;;;;3.20;1.98;;;;;;;;;;5060028;28;20028;-82
2021/07/26 10:33:13;;;;;;;3.13;1.40;;;;;;;;;;5059509;28;20405;-83
2021/07/26 10:35:46;;;;;;;3.60;1.40;;;45.00;23.10;;;;;;5062518;28;20021;-83
2021/07/26 10:38:12;;;;;;;3.55;1.48;;;;;;;;;;5060088;28;20033;-83
2021/07/26 10:40:38;;;;;;;8.95;1.85;;;;;;;;;;5056443;28;20036;-84
2021/07/26 10:43:05;;;;;;;2.35;1.00;;;;;;;;;;5055183;28;20047;-84
2021/07/26 10:45:33;;;;;;;4.10;1.52;;;46.10;21.60;;;;;;5060812;28;20025;-84
2021/07/26 10:48:27;;;;;;;3.97;1.80;;;45.70;22.70;;;;;;5055386;28;20608;-83
2021/07/26 10:50:53;;;;;;;4.28;2.20;;;;;;;;;;5058352;28;20099;-83
2021/07/26 10:53:37;;;;;;;3.20;1.70;;;;;;;;;;5059906;28;20036;-83
2021/07/26 10:56:07;;;;;;;2.83;1.50;;;;;;;;;;5053907;28;20040;-84
2021/07/26 10:58:39;;;;;;;2.75;1.63;;;;;;;;;;5054415;28;20137;-84
2021/07/26 11:01:20;;;;;;;8.25;1.20;;;45.60;20.40;;;;;;5060637;28;20053;-84
2021/07/26 11:03:51;;;;;;;4.18;1.80;;;41.00;22.70;;;;;;5058056;28;20409;-84
2021/07/26 11:06:34;;;;;;;4.22;1.98;;;40.60;38.80;;;;;;5059410;28;20029;-84
2021/07/26 11:09:18;;;;;;;7.05;2.35;;;42.70;24.00;;;;;;5052219;28;20102;-83
2021/07/26 11:11:45;;;;;;;3.45;1.40;;;;;;;;;;5055486;28;20033;-83
2021/07/26 11:14:12;;;;;;;;;;;;;;;;;;5058852;28;20112;-83
2021/07/26 11:16:51;;;;;;;5.50;2.17;;;35.60;28.30;;;;;;5058920;28;20294;-85
2021/07/26 11:19:52;;;;;;;5.07;1.77;;;35.20;29.50;;;;;;5061134;28;20029;-84
2021/07/26 11:22:19;;;;;;;3.55;1.38;;;;;;;;;;5048536;28;20041;-83
2021/07/26 11:24:45;;;;;;;6.57;1.98;;;;;;;;;;5051096;28;20094;-82
2021/07/26 11:27:11;;;;;;;3.13;1.63;;;33.70;30.00;;;;;;5059853;28;20021;-85
2021/07/26 11:29:37;;;;;;;5.28;1.17;;;;;;;;;;5055458;28;20516;-84
2021/07/26 11:32:04;;;;;;;3.08;1.35;;;;;;;;;;5052802;28;20025;-85
2021/07/26 11:34:33;;;;;;;4.32;2.05;;;;;;;;;;5053073;28;20456;-83
2021/07/26 11:37:07;;;;;;;4.00;1.90;;;;;;;;;;5062526;28;20040;-83
2021/07/26 11:39:52;;;;;;;9.43;1.77;;;31.60;33.30;;;;;;5057438;28;20037;-81
2021/07/26 11:42:20;;;;;;;4.72;2.35;;;31.40;32.90;;;;;;5063028;28;20032;-81
2021/07/26 11:44:48;;;;;;;3.92;1.80;;;31.30;33.20;;;;;;5055517;28;20033;-80
2021/07/26 11:47:15;;;;;;;4.13;1.50;;;31.40;33.50;;;;;;5049981;28;20044;-82
2021/07/26 11:49:48;;;;;;;18.88;2.30;;;31.60;32.70;;;;;;5051244;28;20032;-81
2021/07/26 11:52:15;;;;;;;2.58;1.40;;;;;;;;;;5062453;28;20025;-83
2021/07/26 11:54:41;;;;;;;4.68;1.50;;;;;;;;;;5055849;28;20136;-83
2021/07/26 11:57:08;;;;;;;4.13;2.20;;;30.90;32.70;;;;;;5056645;28;20135;-82
2021/07/26 11:59:35;;;;;;;2.45;1.38;;;;;;;;;;5050900;28;20470;-82
2021/07/26 12:02:31;;;;;;;4.87;1.77;;;30.80;33.10;;;;;;5059031;28;20031;-83
2021/07/26 12:05:02;;;;;;;4.82;1.38;;;30.70;31.10;;;;;;5050719;28;20896;-82
2021/07/26 12:07:44;;;;;;;6.93;1.52;;;;;;;;;;5049829;28;20032;-81
2021/07/26 12:10:12;;;;;;;2.67;1.45;;;;;;;;;;5051289;28;20029;-80
2021/07/26 12:12:41;;;;;;;4.30;1.63;;;30.60;33.30;;;;;;5053329;28;20040;-81
2021/07/26 12:15:26;;;;;;;4.50;2.28;;;;;;;;;;5053060;28;20040;-81
2021/07/26 12:18:04;;;;;;;9.45;1.85;;;30.20;32.70;;;;;;5053807;28;20101;-81
2021/07/26 12:20:30;;;;;;;4.55;1.65;;;30.30;33.10;;;;;;5050369;28;20036;-80
2021/07/26 12:22:56;;;;;;;2.13;1.10;;;;;;;;;;5054189;28;20043;-82
2021/07/26 12:25:23;;;;;;;4.85;1.33;;;30.20;35.00;;;;;;5046612;28;20021;-82
2021/07/26 12:27:55;;;;;;;7.05;1.88;;;30.40;46.50;;;;;;5054740;28;20063;-81
2021/07/26 12:30:22;;;;;;;3.72;1.15;;;;;;;;;;5052113;28;20496;-81
2021/07/26 12:32:52;;;;;;;2.90;1.35;;;;;;;;;;5054416;28;20032;-82
2021/07/26 12:35:18;;;;;;;2.75;1.35;;;;;;;;;;5053029;28;20133;-82
2021/07/26 12:38:03;;;;;;;5.20;1.85;;;29.90;35.40;;;;;;5048162;28;20024;-82
2021/07/26 12:40:29;;;;;;;5.28;1.42;;;;;;;;;;5045215;28;20048;-81
2021/07/26 12:43:17;;;;;;;4.33;3.17;;;29.90;35.20;;;;;;5064229;28;20033;-81
2021/07/26 12:45:57;;;;;;;3.28;1.45;;;;;;;;;;5062683;28;20263;-82
2021/07/26 12:48:24;;;;;;;2.17;1.23;;;;;;;;;;5050975;28;20029;-81
2021/07/26 12:50:51;;;;;;;5.65;1.52;;;;;;;;;;5052005;28;20399;-81
2021/07/26 12:53:17;;;;;;;2.28;1.40;;;;;;;;;;5066008;28;20135;-87
2021/07/26 12:55:44;;;;;;;2.80;1.33;;;29.40;34.90;;;;;;5065882;28;20044;-88
2021/07/26 12:58:11;;;;;;;3.03;1.25;;;;;;;;;;5047669;28;20321;-87
2021/07/26 13:00:37;;;;;;;;;;;;;;;;;;5051458;28;20044;-86
2021/07/26 13:03:05;;;;;;;3.20;1.60;;;;;;;;;;5057985;28;19927;-87
2021/07/26 13:05:33;;;;;;;2.75;1.33;;;29.10;35.20;;;;;;5054075;28;20596;-88
2021/07/26 13:07:59;;;;;;;9.90;2.20;;;;;;;;;;5056840;28;20024;-87
2021/07/26 13:10:25;;;;;;;2.25;1.20;;;;;;;;;;5062870;28;20051;-89
2021/07/26 13:12:51;;;;;;;2.88;1.38;;;;;;;;;;5050420;28;20111;-88
2021/07/26 13:15:17;;;;;;;7.40;1.80;;;;;;;;;;5062643;28;20112;-88
2021/07/26 13:17:43;;;;;;;2.60;1.30;;;;;;;;;;5054698;28;20066;-88
2021/07/26 13:20:10;;;;;;;2.97;1.85;;;;;;;;;;5056064;28;20025;-88
2021/07/26 13:22:37;;;;;;;9.52;2.05;;;;;;;;;;5054690;28;20024;-87
2021/07/26 13:25:04;;;;;;;2.65;1.35;;;;;;;;;;5055136;28;20037;-87
2021/07/26 13:27:30;;;;;;;;;;;29.40;38.10;;;;;;5064751;28;20128;-88
2021/07/26 13:29:56;;;;;;;4.30;1.13;;;;;;;;;;5058436;28;20007;-87
2021/07/26 13:32:22;;;;;;;2.75;1.33;;;;;;;;;;5054828;28;20024;-86
2021/07/26 13:34:48;;;;;;;3.15;1.23;;;;;;;;;;5066997;28;20090;-86
2021/07/26 13:37:14;;;;;;;3.25;1.00;;;;;;;;;;5066954;28;20103;-87
2021/07/26 13:39:40;;;;;;;2.80;1.48;;;;;;;;;;5057048;28;20040;-88
2021/07/26 13:42:06;;;;;;;5.30;1.77;;;;;;;;;;5057668;28;20029;-87
2021/07/26 13:44:32;;;;;;;2.53;1.48;;;;;;;;;;5053889;28;20517;-87
2021/07/26 13:46:58;;;;;;;4.10;1.98;;;;;;;;;;5056530;28;20051;-88
2021/07/26 13:49:24;;;;;;;3.03;2.08;;;;;;;;;;5052234;28;20028;-87
2021/07/26 13:51:50;;;;;;;6.90;2.75;;;;;;;;;;5058361;28;20044;-87
2021/07/26 13:54:16;;;;;;;3.35;1.50;;;;;;;;;;5064678;28;20025;-86
2021/07/26 13:56:42;;;;;;;8.37;1.27;;;;;;;;;;5067052;28;20509;-87
2021/07/26 13:59:08;;;;;;;7.40;2.15;;;;;;;;;;5054721;28;20032;-85
2021/07/26 14:01:34;;;;;;;2.67;1.48;;;;;;;;;;5049302;28;20086;-86
2021/07/26 14:04:00;;;;;;;3.92;2.25;;;;;;;;;;5055282;28;20044;-86
2021/07/26 14:06:30;;;;;;;2.95;1.90;;;;;;;;;;5060906;28;20405;-88
2021/07/26 14:08:56;;;;;;;3.85;1.70;;;;;;;;;;5061535;28;20025;-87
2021/07/26 14:11:22;;;;;;;2.67;1.17;;;;;;;;;;5052664;28;20110;-86
2021/07/26 14:13:48;;;;;;;2.85;1.23;;;;;;;;;;5057614;28;20056;-86
2021/07/26 14:16:14;;;;;;;4.10;1.92;;;;;;;;;;5052518;28;20686;-87
2021/07/26 14:18:40;;;;;;;8.38;1.48;;;;;;;;;;5059611;28;20037;-87
2021/07/26 14:21:05;;;;;;;6.20;1.80;;;;;;;;;;5056214;28;20540;-87